Time;durP1;ratioP1;P1;durP2;ratioP2;P2;SDS_P1;SDS_P2;PMS_P1;PMS_P2;Temp;Humidity;BMP_temperature;BMP_pressure;BME280_temperature;BME280_humidity;BME280_pressure;Samples;Min_cycle;Max_cycle;Signal;HPM_P1;HPM_P2
2021/06/05 00:00:31;;;;;;;1.85;1.75;;;20.20;99.90;;;;;;4985470;28;20191;-63
2021/06/05 00:02:59;;;;;;;1.60;1.50;;;20.20;99.90;;;;;;4987238;28;20191;-63
2021/06/05 00:05:26;;;;;;;1.60;1.50;;;20.10;99.90;;;;;;4988949;28;20226;-63
2021/06/05 00:07:52;;;;;;;1.50;1.40;;;20.10;99.90;;;;;;4987636;28;20274;-63
2021/06/05 00:10:25;;;;;;;1.87;1.60;;;20.10;99.90;;;;;;4987930;28;20274;-63
2021/06/05 00:12:50;;;;;;;1.50;1.35;;;20.10;99.90;;;;;;4988485;28;20183;-62
2021/06/05 00:15:28;;;;;;;1.73;1.30;;;20.10;99.90;;;;;;4988287;28;20624;-63
2021/06/05 00:17:54;;;;;;;1.73;1.60;;;20.00;99.90;;;;;;4985270;28;20199;-62
2021/06/05 00:20:22;;;;;;;1.40;1.30;;;20.00;99.90;;;;;;4988831;28;20194;-63
2021/06/05 00:22:47;;;;;;;3.28;1.65;;;20.00;99.90;;;;;;4988544;28;20184;-62
2021/06/05 00:25:14;;;;;;;1.33;1.20;;;20.00;99.90;;;;;;5004585;28;20671;-62
2021/06/05 00:27:40;;;;;;;1.48;1.38;;;20.00;99.90;;;;;;4988856;28;20637;-63
2021/06/05 00:30:07;;;;;;;1.50;1.40;;;20.00;99.90;;;;;;4988154;28;20187;-64
2021/06/05 00:32:32;;;;;;;1.98;1.50;;;20.00;99.90;;;;;;4988079;28;20242;-63
2021/06/05 00:34:58;;;;;;;1.57;1.47;;;20.00;99.90;;;;;;4988158;28;20210;-64
2021/06/05 00:37:24;;;;;;;1.80;1.70;;;19.90;99.90;;;;;;4988781;28;20179;-64
2021/06/05 00:39:50;;;;;;;2.50;2.07;;;19.60;99.90;;;;;;4988399;28;20207;-64
2021/06/05 00:42:15;;;;;;;2.77;2.00;;;19.80;99.90;;;;;;4990316;28;20183;-64
2021/06/05 00:44:41;;;;;;;2.60;2.40;;;19.50;99.90;;;;;;4987520;28;20195;-65
2021/06/05 00:47:07;;;;;;;2.35;2.15;;;19.50;99.90;;;;;;4988471;28;20278;-64
2021/06/05 00:49:33;;;;;;;4.10;2.40;;;19.50;99.90;;;;;;4987522;28;20286;-63
2021/06/05 00:52:02;;;;;;;2.00;1.90;;;19.40;99.90;;;;;;4988141;28;20215;-63
2021/06/05 00:54:28;;;;;;;3.38;2.03;;;19.20;99.90;;;;;;4988760;28;20192;-62
2021/06/05 00:56:57;;;;;;;3.25;2.00;;;19.10;99.90;;;;;;4992304;28;20222;-63
2021/06/05 00:59:23;;;;;;;1.70;1.60;;;19.10;99.90;;;;;;4991614;28;20349;-63
2021/06/05 01:01:50;;;;;;;2.30;1.85;;;19.10;99.90;;;;;;4992090;28;20200;-63
2021/06/05 01:04:16;;;;;;;2.25;2.10;;;18.90;99.90;;;;;;4991795;28;20183;-64
2021/06/05 01:06:50;;;;;;;1.98;1.77;;;18.80;99.90;;;;;;4992575;28;20207;-63
2021/06/05 01:10:01;;;;;;;3.17;1.90;;;18.70;99.90;;;;;;4991704;28;20945;-64
2021/06/05 01:12:43;;;;;;;3.60;1.98;;;18.70;99.90;;;;;;4992444;28;20269;-63
2021/06/05 01:15:32;;;;;;;2.45;1.80;;;18.60;99.90;;;;;;4991840;28;20191;-64
2021/06/05 01:18:07;;;;;;;2.17;2.08;;;18.50;99.90;;;;;;4988039;28;20195;-63
2021/06/05 01:20:43;;;;;;;2.63;2.28;;;18.40;99.90;;;;;;4990190;28;20293;-63
2021/06/05 01:23:08;;;;;;;2.95;1.73;;;18.40;99.90;;;;;;4991153;28;20214;-63
2021/06/05 01:25:49;;;;;;;2.07;1.87;;;18.30;99.90;;;;;;4991173;28;20211;-63
2021/06/05 01:28:36;;;;;;;2.03;1.88;;;18.30;99.90;;;;;;4989339;28;20599;-63
2021/06/05 01:31:08;;;;;;;1.83;1.73;;;18.30;99.90;;;;;;4986881;28;20278;-63
2021/06/05 01:33:37;;;;;;;1.70;1.60;;;18.30;99.90;;;;;;4989923;28;20188;-63
2021/06/05 01:36:05;;;;;;;2.10;1.90;;;18.30;99.90;;;;;;4991990;28;20746;-63
2021/06/05 01:38:33;;;;;;;1.80;1.70;;;18.40;99.90;;;;;;4991228;28;20627;-63
2021/06/05 01:41:00;;;;;;;1.80;1.55;;;18.30;99.90;;;;;;4991887;28;20262;-63
2021/06/05 01:43:28;;;;;;;3.15;1.88;;;18.40;99.90;;;;;;4988408;28;20223;-62
2021/06/05 01:45:55;;;;;;;2.30;1.80;;;18.40;99.90;;;;;;4992903;28;20707;-63
2021/06/05 01:48:21;;;;;;;2.95;1.48;;;18.40;99.90;;;;;;4991382;28;20245;-63
2021/06/05 01:50:47;;;;;;;2.57;1.60;;;18.40;99.90;;;;;;4987858;28;20598;-63
2021/06/05 01:53:15;;;;;;;2.55;1.73;;;18.50;99.90;;;;;;4990564;28;20188;-62
2021/06/05 01:55:47;;;;;;;3.08;1.20;;;18.50;99.90;;;;;;4991501;28;20634;-63
2021/06/05 01:58:15;;;;;;;1.25;1.15;;;18.50;99.90;;;;;;4990856;28;20278;-62
2021/06/05 02:00:50;;;;;;;1.45;1.23;;;18.60;99.90;;;;;;4991138;28;20595;-63
2021/06/05 02:03:16;;;;;;;1.65;1.55;;;18.60;99.90;;;;;;4988820;28;20214;-63
2021/06/05 02:05:43;;;;;;;1.73;1.42;;;18.60;99.90;;;;;;4989830;28;20218;-63
2021/06/05 02:08:13;;;;;;;1.88;1.50;;;18.60;99.90;;;;;;4992768;28;20536;-63
2021/06/05 02:10:39;;;;;;;1.95;1.00;;;18.60;99.90;;;;;;4991229;28;20286;-63
2021/06/05 02:13:10;;;;;;;1.80;1.60;;;18.60;99.90;;;;;;4991338;28;20184;-63
2021/06/05 02:15:45;;;;;;;2.45;1.85;;;18.60;99.90;;;;;;4991398;28;20211;-63
2021/06/05 02:18:16;;;;;;;1.75;1.58;;;18.70;99.90;;;;;;4991958;28;20210;-63
2021/06/05 02:20:52;;;;;;;1.33;1.23;;;18.60;99.90;;;;;;4991332;28;20184;-62
2021/06/05 02:23:23;;;;;;;1.42;1.33;;;18.70;99.90;;;;;;4986772;28;20191;-63
2021/06/05 02:25:51;;;;;;;1.77;1.35;;;18.60;99.90;;;;;;4990891;28;20211;-63
2021/06/05 02:28:17;;;;;;;1.52;1.42;;;18.60;99.90;;;;;;4990995;28;20238;-63
2021/06/05 02:30:43;;;;;;;1.87;1.40;;;18.60;99.90;;;;;;4990570;28;20199;-63
2021/06/05 02:33:08;;;;;;;1.30;1.20;;;18.60;99.90;;;;;;4989759;28;20478;-63
2021/06/05 02:35:40;;;;;;;2.23;1.47;;;18.50;99.90;;;;;;4991020;28;20199;-64
2021/06/05 02:38:07;;;;;;;1.40;1.30;;;18.50;99.90;;;;;;4990376;28;20447;-63
2021/06/05 02:40:36;;;;;;;1.30;1.20;;;18.50;99.90;;;;;;4990962;28;20421;-63
2021/06/05 02:43:08;;;;;;;1.63;1.30;;;18.50;99.90;;;;;;4991013;28;20187;-64
2021/06/05 02:45:37;;;;;;;1.70;1.33;;;18.40;99.90;;;;;;4983983;28;20211;-64
2021/06/05 02:48:04;;;;;;;2.85;1.35;;;18.40;99.90;;;;;;4990502;28;20610;-64
2021/06/05 02:50:34;;;;;;;2.42;1.23;;;18.40;99.90;;;;;;4989708;28;20187;-65
2021/06/05 02:52:59;;;;;;;2.67;1.45;;;18.40;99.90;;;;;;4990398;28;20203;-65
2021/06/05 02:55:25;;;;;;;3.33;1.90;;;18.40;99.90;;;;;;4990591;28;20236;-64
2021/06/05 02:57:51;;;;;;;1.67;1.48;;;18.40;99.90;;;;;;4989907;28;20192;-65
2021/06/05 03:00:38;;;;;;;2.30;1.30;;;18.40;99.90;;;;;;4990536;28;20187;-65
2021/06/05 03:03:06;;;;;;;2.38;1.80;;;18.20;99.90;;;;;;4990393;28;20451;-65
2021/06/05 03:05:33;;;;;;;2.33;1.70;;;18.40;99.90;;;;;;4990266;28;20219;-66
2021/06/05 03:08:00;;;;;;;2.47;1.40;;;18.40;99.90;;;;;;4988586;28;20184;-65
2021/06/05 03:10:27;;;;;;;2.65;1.40;;;18.40;99.90;;;;;;4990263;28;20192;-64
2021/06/05 03:12:52;;;;;;;1.70;1.60;;;18.40;99.90;;;;;;4990305;28;20183;-65
2021/06/05 03:15:19;;;;;;;1.87;1.40;;;18.40;99.90;;;;;;4989797;28;20265;-64
2021/06/05 03:17:46;;;;;;;1.50;1.40;;;18.50;99.90;;;;;;4989253;28;20184;-65
2021/06/05 03:20:16;;;;;;;1.45;1.35;;;18.50;99.90;;;;;;4989938;28;20218;-64
2021/06/05 03:22:42;;;;;;;3.17;1.52;;;18.60;99.90;;;;;;4990423;28;20202;-64
2021/06/05 03:25:09;;;;;;;1.60;1.25;;;18.70;99.90;;;;;;4988986;28;20591;-64
2021/06/05 03:27:35;;;;;;;3.75;1.25;;;18.80;99.90;;;;;;4989634;28;20282;-65
2021/06/05 03:30:00;;;;;;;3.30;1.40;;;18.90;99.90;;;;;;4989761;28;20669;-65
2021/06/05 03:32:26;;;;;;;2.67;1.70;;;18.90;99.90;;;;;;4987109;28;20983;-65
2021/06/05 03:34:51;;;;;;;1.67;1.30;;;18.90;99.90;;;;;;4989581;28;20183;-64
2021/06/05 03:37:17;;;;;;;1.57;1.47;;;19.00;99.90;;;;;;4989152;28;20289;-66
2021/06/05 03:39:43;;;;;;;4.23;1.50;;;19.10;99.90;;;;;;4989597;28;20219;-63
2021/06/05 03:42:09;;;;;;;1.80;1.40;;;19.10;99.90;;;;;;4989523;28;20186;-63
2021/06/05 03:44:35;;;;;;;1.67;1.58;;;19.30;99.90;;;;;;4989598;28;20202;-63
2021/06/05 03:47:01;;;;;;;4.40;1.60;;;19.20;99.90;;;;;;4989145;28;20203;-63
2021/06/05 03:49:27;;;;;;;3.27;1.70;;;19.20;99.90;;;;;;4989115;28;20253;-64
2021/06/05 03:51:52;;;;;;;2.13;1.60;;;19.20;99.90;;;;;;4985121;28;20187;-61
2021/06/05 03:54:19;;;;;;;1.67;1.50;;;19.20;99.90;;;;;;4988371;28;20286;-62
2021/06/05 03:56:44;;;;;;;2.38;1.80;;;19.10;99.90;;;;;;4989806;28;20466;-62
2021/06/05 03:59:11;;;;;;;2.07;1.73;;;19.10;99.90;;;;;;4988103;28;20508;-62
2021/06/05 04:01:38;;;;;;;1.70;1.60;;;19.10;99.90;;;;;;4984418;28;20218;-61
2021/06/05 04:04:04;;;;;;;1.90;1.70;;;19.00;99.90;;;;;;4983470;28;20188;-61
2021/06/05 04:06:31;;;;;;;2.03;1.60;;;19.00;99.90;;;;;;4983854;28;20238;-62
2021/06/05 04:08:58;;;;;;;3.65;1.70;;;19.00;99.90;;;;;;4984771;28;20195;-61
2021/06/05 04:11:25;;;;;;;2.05;1.92;;;18.90;99.90;;;;;;4987243;28;20198;-62
2021/06/05 04:13:51;;;;;;;1.70;1.60;;;18.90;99.90;;;;;;4986898;28;20229;-62
2021/06/05 04:16:22;;;;;;;2.00;1.60;;;18.90;99.90;;;;;;4988844;28;20215;-63
2021/06/05 04:18:48;;;;;;;2.22;1.95;;;18.90;99.90;;;;;;4983963;28;20297;-60
2021/06/05 04:21:19;;;;;;;5.43;1.70;;;18.80;99.90;;;;;;4984505;28;20708;-61
2021/06/05 04:23:45;;;;;;;2.75;1.55;;;18.80;99.90;;;;;;4980303;28;20552;-67
2021/06/05 04:26:11;;;;;;;2.08;1.73;;;18.70;99.90;;;;;;4985177;28;20213;-64
2021/06/05 04:28:38;;;;;;;2.95;1.85;;;18.90;99.90;;;;;;4982776;28;20183;-62
2021/06/05 04:31:05;;;;;;;3.50;3.10;;;18.80;99.90;;;;;;4983123;28;20222;-62
2021/06/05 04:33:32;;;;;;;3.40;2.30;;;18.80;99.90;;;;;;4983358;28;20657;-60
2021/06/05 04:36:00;;;;;;;2.15;1.95;;;18.90;99.90;;;;;;4980560;28;20704;-66
2021/06/05 04:38:26;;;;;;;2.17;1.77;;;18.90;99.90;;;;;;4981752;28;20208;-59
2021/06/05 04:40:53;;;;;;;1.60;1.50;;;19.00;99.90;;;;;;4982851;28;20182;-59
2021/06/05 04:43:19;;;;;;;1.95;1.52;;;19.00;99.90;;;;;;4980948;28;20192;-60
2021/06/05 04:45:45;;;;;;;2.50;1.60;;;18.90;99.90;;;;;;4984143;28;20217;-60
2021/06/05 04:48:12;;;;;;;1.77;1.67;;;18.90;99.90;;;;;;4981223;28;20183;-62
2021/06/05 04:50:40;;;;;;;2.78;1.70;;;19.10;99.90;;;;;;4983971;28;20645;-62
2021/06/05 04:53:06;;;;;;;3.85;2.33;;;19.00;99.90;;;;;;4982743;28;20270;-62
2021/06/05 04:55:33;;;;;;;1.45;1.35;;;19.10;99.90;;;;;;4984332;28;20238;-66
2021/06/05 04:57:59;;;;;;;2.20;1.95;;;19.20;99.90;;;;;;4984942;28;20236;-59
2021/06/05 05:00:37;;;;;;;3.65;2.50;;;19.30;99.90;;;;;;4984077;28;20187;-61
2021/06/05 05:03:05;;;;;;;3.00;2.25;;;19.30;99.90;;;;;;4981434;28;21329;-61
2021/06/05 05:05:31;;;;;;;3.65;2.13;;;19.20;99.90;;;;;;4984604;28;20776;-62
2021/06/05 05:07:58;;;;;;;2.42;2.22;;;19.10;99.90;;;;;;4981756;28;20192;-60
2021/06/05 05:10:28;;;;;;;1.95;1.85;;;19.10;99.90;;;;;;4983833;28;20187;-60
2021/06/05 05:12:54;;;;;;;5.07;2.35;;;19.00;99.90;;;;;;4982915;28;20188;-60
2021/06/05 05:15:22;;;;;;;2.00;1.80;;;18.80;99.90;;;;;;4980104;28;20215;-60
2021/06/05 05:17:47;;;;;;;3.33;3.00;;;18.90;99.90;;;;;;4982695;28;20222;-61
2021/06/05 05:20:16;;;;;;;2.30;2.10;;;18.80;99.90;;;;;;4980160;28;20307;-58
2021/06/05 05:22:42;;;;;;;5.50;2.10;;;18.80;99.90;;;;;;4985084;28;20529;-57
2021/06/05 05:25:10;;;;;;;2.83;2.00;;;19.00;99.90;;;;;;4980536;28;20820;-57
2021/06/05 05:27:36;;;;;;;2.60;2.40;;;19.00;99.90;;;;;;4994984;28;20662;-57
2021/06/05 05:30:03;;;;;;;3.13;2.42;;;19.00;99.90;;;;;;4980734;28;20188;-57
2021/06/05 05:32:29;;;;;;;4.30;2.38;;;19.10;99.90;;;;;;4999474;28;20210;-57
2021/06/05 05:34:54;;;;;;;3.00;2.30;;;19.30;99.90;;;;;;4984015;28;20545;-58
2021/06/05 05:37:20;;;;;;;2.80;1.70;;;19.30;99.90;;;;;;4986956;28;20298;-58
2021/06/05 05:39:45;;;;;;;2.67;2.40;;;19.40;99.90;;;;;;4984254;28;20592;-57
2021/06/05 05:42:11;;;;;;;3.00;2.20;;;19.50;99.90;;;;;;4989786;28;20179;-57
2021/06/05 05:44:37;;;;;;;2.70;2.03;;;19.50;99.90;;;;;;4989596;28;20266;-57
2021/06/05 05:47:03;;;;;;;2.97;1.90;;;19.70;99.90;;;;;;4991388;28;20211;-57
2021/06/05 05:49:29;;;;;;;2.10;1.90;;;19.70;99.90;;;;;;4991007;28;20188;-57
2021/06/05 05:51:54;;;;;;;2.20;2.00;;;19.70;99.90;;;;;;4991521;28;20687;-57
2021/06/05 05:54:20;;;;;;;3.23;2.30;;;19.90;99.90;;;;;;4990908;28;20680;-57
2021/06/05 05:56:46;;;;;;;1.67;1.57;;;20.10;99.90;;;;;;4985878;28;20200;-57
2021/06/05 05:59:15;;;;;;;2.50;1.57;;;20.40;99.90;;;;;;4980906;28;20199;-58
2021/06/05 06:01:41;;;;;;;1.60;1.50;;;20.60;99.90;;;;;;4988048;28;20276;-57
2021/06/05 06:04:07;;;;;;;1.50;1.37;;;21.00;99.90;;;;;;4989479;28;20539;-57
2021/06/05 06:06:33;;;;;;;1.60;1.50;;;21.10;99.90;;;;;;4991270;28;21011;-58
2021/06/05 06:08:59;;;;;;;1.30;1.20;;;21.10;99.90;;;;;;4990353;28;20184;-57
2021/06/05 06:11:25;;;;;;;2.72;1.45;;;21.10;99.90;;;;;;4989660;28;20649;-57
2021/06/05 06:13:51;;;;;;;3.07;1.53;;;21.30;99.90;;;;;;4989834;28;20196;-58
2021/06/05 06:16:20;;;;;;;1.77;1.50;;;21.30;99.90;;;;;;4980782;28;20557;-57
2021/06/05 06:18:46;;;;;;;2.50;1.50;;;21.30;99.90;;;;;;4989811;28;20207;-57
2021/06/05 06:21:15;;;;;;;3.20;1.90;;;21.50;99.90;;;;;;4978392;28;20199;-58
2021/06/05 06:23:41;;;;;;;6.07;2.05;;;21.60;99.90;;;;;;4986655;28;20191;-58
2021/06/05 06:26:11;;;;;;;1.90;1.60;;;21.60;99.90;;;;;;4987758;28;20199;-58
2021/06/05 06:28:39;;;;;;;2.97;1.70;;;21.70;99.90;;;;;;4990493;28;20250;-58
2021/06/05 06:31:06;;;;;;;1.80;1.70;;;21.80;99.90;;;;;;4988797;28;20190;-58
2021/06/05 06:33:32;;;;;;;1.65;1.55;;;21.80;99.90;;;;;;4986596;28;20198;-58
2021/06/05 06:35:58;;;;;;;1.60;1.50;;;21.90;99.90;;;;;;4990054;28;20293;-58
2021/06/05 06:38:30;;;;;;;2.65;1.52;;;21.90;99.90;;;;;;4989960;28;20301;-58
2021/06/05 06:40:57;;;;;;;2.13;1.48;;;22.00;99.90;;;;;;4989913;28;20190;-57
2021/06/05 06:43:25;;;;;;;2.40;1.60;;;22.20;99.90;;;;;;4991220;28;20661;-58
2021/06/05 06:45:51;;;;;;;3.80;2.13;;;22.40;99.90;;;;;;4988006;28;20459;-58
2021/06/05 06:48:17;;;;;;;2.60;2.07;;;22.30;99.70;;;;;;4983400;28;20188;-56
2021/06/05 06:50:43;;;;;;;2.50;1.77;;;22.50;99.20;;;;;;4983633;28;20645;-54
2021/06/05 06:53:09;;;;;;;3.00;2.00;;;22.70;99.10;;;;;;4983876;28;20841;-55
2021/06/05 06:55:35;;;;;;;2.23;1.40;;;23.20;98.40;;;;;;4983064;28;20211;-55
2021/06/05 06:58:01;;;;;;;2.17;1.30;;;23.40;97.60;;;;;;4982690;28;20917;-55
2021/06/05 07:00:36;;;;;;;1.77;1.67;;;23.80;96.90;;;;;;4982591;28;20720;-55
2021/06/05 07:03:01;;;;;;;2.07;1.50;;;24.00;95.80;;;;;;4985612;28;20432;-57
2021/06/05 07:05:27;;;;;;;1.70;1.50;;;24.40;95.70;;;;;;4987109;28;20511;-56
2021/06/05 07:08:14;;;;;;;1.60;1.50;;;25.30;94.10;;;;;;4985344;28;20184;-57
2021/06/05 07:10:44;;;;;;;1.93;1.30;;;26.30;91.70;;;;;;4985468;28;20959;-57
2021/06/05 07:13:10;;;;;;;1.60;1.50;;;26.40;90.40;;;;;;4984695;28;20960;-56
2021/06/05 07:15:36;;;;;;;1.47;1.23;;;26.20;90.20;;;;;;4982630;28;20532;-57
2021/06/05 07:18:04;;;;;;;2.20;1.70;;;25.80;91.00;;;;;;4998757;28;20793;-57
2021/06/05 07:20:31;;;;;;;1.40;1.30;;;25.80;91.00;;;;;;4984625;28;20787;-56
2021/06/05 07:22:57;;;;;;;1.97;1.23;;;25.40;91.10;;;;;;4983878;28;20799;-56
2021/06/05 07:25:23;;;;;;;3.30;1.70;;;25.20;91.80;;;;;;4986335;28;20456;-56
2021/06/05 07:27:49;;;;;;;2.80;1.60;;;24.90;92.10;;;;;;4990434;28;20423;-56
2021/06/05 07:30:16;;;;;;;1.60;1.40;;;25.10;92.40;;;;;;4986875;28;20264;-57
2021/06/05 07:32:42;;;;;;;2.00;1.70;;;25.50;91.60;;;;;;4985519;28;20282;-56
2021/06/05 07:35:09;;;;;;;3.00;1.40;;;26.20;90.50;;;;;;4981607;28;20871;-57
2021/06/05 07:37:34;;;;;;;2.50;1.63;;;27.00;88.30;;;;;;4983310;28;20450;-57
2021/06/05 07:40:06;;;;;;;4.17;1.50;;;27.00;86.70;;;;;;4985638;28;20462;-58
2021/06/05 07:42:32;;;;;;;1.77;1.63;;;26.70;88.00;;;;;;4985320;28;20285;-58
2021/06/05 07:44:58;;;;;;;3.80;2.10;;;26.60;88.00;;;;;;4997806;28;20446;-57
2021/06/05 07:47:24;;;;;;;2.00;1.80;;;26.40;88.80;;;;;;4982257;28;20443;-58
2021/06/05 07:49:49;;;;;;;1.60;1.50;;;25.90;90.10;;;;;;4982273;28;20281;-58
2021/06/05 07:52:23;;;;;;;1.70;1.60;;;26.00;90.10;;;;;;4983938;28;20189;-58
2021/06/05 07:54:49;;;;;;;1.47;1.37;;;25.60;89.10;;;;;;4982527;28;20243;-55
2021/06/05 07:57:15;;;;;;;2.37;2.17;;;25.50;89.20;;;;;;4981151;28;20452;-56
2021/06/05 07:59:41;;;;;;;2.10;1.90;;;25.00;90.50;;;;;;4978782;28;20474;-56
2021/06/05 08:02:07;;;;;;;1.90;1.80;;;24.90;90.70;;;;;;4983710;28;20223;-55
2021/06/05 08:04:32;;;;;;;2.43;1.70;;;24.70;90.80;;;;;;4976273;28;20459;-56
2021/06/05 08:06:58;;;;;;;2.20;1.87;;;24.70;91.10;;;;;;4986740;28;20983;-55
2021/06/05 08:09:24;;;;;;;1.97;1.87;;;24.70;91.70;;;;;;4984485;28;20195;-55
2021/06/05 08:11:50;;;;;;;4.40;2.37;;;24.40;91.30;;;;;;4984495;28;20203;-56
2021/06/05 08:14:16;;;;;;;1.93;1.60;;;24.00;92.10;;;;;;4982439;28;20192;-56
2021/06/05 08:16:42;;;;;;;2.70;1.67;;;24.10;92.00;;;;;;4985232;28;20249;-56
2021/06/05 08:19:11;;;;;;;2.20;1.93;;;24.00;92.10;;;;;;4982084;28;20553;-56
2021/06/05 08:21:38;;;;;;;1.80;1.60;;;24.10;92.60;;;;;;4982560;28;20944;-56
2021/06/05 08:24:04;;;;;;;2.57;1.80;;;24.10;92.50;;;;;;4981865;28;20570;-57
2021/06/05 08:26:29;;;;;;;2.17;1.80;;;24.20;92.70;;;;;;4979142;28;20469;-57
2021/06/05 08:28:55;;;;;;;1.83;1.47;;;24.10;92.90;;;;;;4979704;28;20431;-56
2021/06/05 08:31:22;;;;;;;2.60;1.80;;;23.90;93.40;;;;;;4983365;28;20184;-56
2021/06/05 08:33:49;;;;;;;2.70;1.97;;;23.90;93.40;;;;;;4984775;28;20286;-56
2021/06/05 08:36:18;;;;;;;1.70;1.60;;;23.90;94.30;;;;;;4977987;28;20463;-56
2021/06/05 08:38:44;;;;;;;2.43;1.73;;;23.90;94.70;;;;;;4981903;28;20462;-56
2021/06/05 08:41:18;;;;;;;2.73;1.80;;;23.80;95.20;;;;;;4982396;28;20439;-57
2021/06/05 08:43:49;;;;;;;2.07;1.67;;;23.70;95.40;;;;;;4983367;28;20249;-56
2021/06/05 08:46:24;;;;;;;2.70;1.70;;;23.70;95.60;;;;;;4986799;28;21033;-56
2021/06/05 08:48:50;;;;;;;2.20;1.67;;;23.60;95.90;;;;;;4981879;28;20434;-55
2021/06/05 08:51:35;;;;;;;3.70;1.77;;;23.70;95.90;;;;;;4980653;28;20501;-56
2021/06/05 08:54:16;;;;;;;2.03;1.60;;;23.80;96.10;;;;;;4988522;28;20514;-56
2021/06/05 08:56:41;;;;;;;2.40;1.70;;;24.00;95.20;;;;;;4988487;28;20450;-56
2021/06/05 08:59:09;;;;;;;1.93;1.37;;;24.10;95.20;;;;;;4988335;28;20498;-56
2021/06/05 09:01:41;;;;;;;1.70;1.60;;;24.20;95.10;;;;;;4988523;28;20897;-56
2021/06/05 09:04:13;;;;;;;2.30;2.10;;;24.10;95.20;;;;;;4986581;28;20443;-56
2021/06/05 09:07:18;;;;;;;2.30;1.60;;;24.10;95.40;;;;;;4982506;28;20474;-56
2021/06/05 09:09:49;;;;;;;2.63;1.53;;;24.00;95.20;;;;;;4937030;28;20450;-56
2021/06/05 09:12:15;;;;;;;1.87;1.77;;;23.60;95.50;;;;;;4984030;28;20446;-57
2021/06/05 09:14:43;;;;;;;1.70;1.60;;;23.60;96.10;;;;;;4981637;28;20537;-57
2021/06/05 09:17:18;;;;;;;2.87;1.97;;;23.60;96.00;;;;;;4985365;28;20463;-57
2021/06/05 09:20:05;;;;;;;2.43;2.00;;;23.60;96.10;;;;;;4983821;28;20461;-55
2021/06/05 09:22:37;;;;;;;3.20;2.00;;;23.40;96.70;;;;;;4978447;28;20446;-54
2021/06/05 09:25:22;;;;;;;3.97;2.20;;;23.40;97.10;;;;;;4984401;28;20870;-56
2021/06/05 09:27:47;;;;;;;2.53;1.60;;;23.30;96.70;;;;;;5001020;28;20879;-56
2021/06/05 09:30:36;;;;;;;1.47;1.37;;;23.20;96.30;;;;;;4987620;28;20474;-57
2021/06/05 09:33:05;;;;;;;2.03;1.73;;;23.20;96.40;;;;;;4985667;28;20192;-56
2021/06/05 09:35:44;;;;;;;1.70;1.60;;;23.30;96.70;;;;;;4982109;28;20462;-56
2021/06/05 09:38:25;;;;;;;4.20;1.70;;;23.20;96.20;;;;;;4981127;28;20442;-56
2021/06/05 09:41:26;;;;;;;2.77;1.90;;;23.10;96.70;;;;;;4986729;28;20538;-56
2021/06/05 09:44:00;;;;;;;2.33;2.13;;;23.10;96.50;;;;;;4968552;28;20468;-56
2021/06/05 09:46:32;;;;;;;2.10;1.73;;;23.00;97.20;;;;;;4983361;28;20861;-56
2021/06/05 09:49:39;;;;;;;2.30;2.10;;;23.00;96.90;;;;;;4985955;28;20485;-56
2021/06/05 09:52:30;;;;;;;2.20;1.90;;;23.10;98.10;;;;;;4967197;28;20447;-55
2021/06/05 09:54:58;;;;;;;2.70;2.33;;;23.30;98.10;;;;;;4991680;28;20442;-55
2021/06/05 09:57:30;;;;;;;2.90;2.10;;;23.20;98.10;;;;;;4992276;28;20466;-55
2021/06/05 10:00:11;;;;;;;2.30;2.10;;;23.40;98.00;;;;;;4991217;28;20466;-55
2021/06/05 10:02:40;;;;;;;2.73;2.10;;;23.60;97.70;;;;;;5008118;28;20477;-55
2021/06/05 10:05:19;;;;;;;2.30;2.00;;;23.40;98.10;;;;;;4991574;28;20446;-56
2021/06/05 10:07:45;;;;;;;4.13;2.70;;;23.20;98.30;;;;;;4984293;28;20442;-55
2021/06/05 10:10:27;;;;;;;3.43;3.13;;;23.30;98.60;;;;;;4990935;28;20756;-56
2021/06/05 10:12:53;;;;;;;2.83;2.40;;;23.20;98.40;;;;;;4988783;28;20443;-57
2021/06/05 10:15:28;;;;;;;1.97;1.77;;;23.10;98.90;;;;;;4988724;28;20870;-56
2021/06/05 10:17:58;;;;;;;2.20;1.70;;;23.40;98.90;;;;;;4990830;28;20814;-57
2021/06/05 10:20:46;;;;;;;2.73;2.50;;;23.40;98.70;;;;;;4985374;28;20478;-59
2021/06/05 10:23:23;;;;;;;2.40;2.20;;;23.30;99.50;;;;;;4981382;28;20974;-60
2021/06/05 10:25:55;;;;;;;2.00;1.90;;;23.30;99.80;;;;;;4986043;28;20629;-59
2021/06/05 10:28:25;;;;;;;3.13;2.37;;;23.40;99.90;;;;;;4982017;28;20506;-60
2021/06/05 10:30:53;;;;;;;2.50;2.30;;;23.50;99.50;;;;;;4982987;28;20530;-59
2021/06/05 10:33:40;;;;;;;2.83;2.60;;;23.40;99.90;;;;;;4982483;28;20452;-60
2021/06/05 10:36:17;;;;;;;3.83;2.70;;;23.50;99.90;;;;;;4998607;28;20463;-59
2021/06/05 10:38:49;;;;;;;2.97;2.60;;;23.50;99.90;;;;;;4989770;28;20466;-59
2021/06/05 10:41:23;;;;;;;3.83;2.07;;;23.30;99.90;;;;;;4986428;28;20546;-59
2021/06/05 10:43:49;;;;;;;2.87;2.03;;;23.30;99.90;;;;;;4983443;28;20973;-59
2021/06/05 10:46:21;;;;;;;3.50;2.00;;;23.30;99.90;;;;;;4988291;28;20570;-60
2021/06/05 10:48:49;;;;;;;2.20;1.97;;;23.60;99.60;;;;;;4982063;28;20968;-60
2021/06/05 10:51:24;;;;;;;2.23;1.80;;;23.80;98.90;;;;;;4988864;28;20454;-60
2021/06/05 10:54:07;;;;;;;2.57;2.33;;;23.80;99.80;;;;;;4988383;28;20450;-59
2021/06/05 10:56:55;;;;;;;3.10;2.40;;;23.70;99.90;;;;;;4987780;28;20540;-60
2021/06/05 10:59:45;;;;;;;2.83;2.23;;;23.70;99.90;;;;;;4990526;28;20466;-60
2021/06/05 11:02:40;;;;;;;2.33;2.13;;;23.90;99.90;;;;;;4990454;28;20457;-59
2021/06/05 11:05:34;;;;;;;2.10;1.93;;;23.60;99.60;;;;;;4990431;28;20438;-59
2021/06/05 11:08:08;;;;;;;2.67;2.17;;;23.60;99.70;;;;;;4978678;28;20430;-59
2021/06/05 11:11:01;;;;;;;2.10;1.90;;;23.70;99.60;;;;;;4988908;28;20525;-59
2021/06/05 11:13:35;;;;;;;2.00;1.80;;;23.90;98.60;;;;;;4947735;28;20834;-59
2021/06/05 11:16:15;;;;;;;2.80;1.73;;;24.10;99.40;;;;;;4990219;28;20485;-59
2021/06/05 11:18:46;;;;;;;2.40;2.20;;;24.10;98.80;;;;;;4986240;28;20477;-59
2021/06/05 11:21:24;;;;;;;3.53;2.37;;;24.10;98.70;;;;;;4988360;28;20442;-58
2021/06/05 11:24:10;;;;;;;2.30;2.10;;;24.30;99.90;;;;;;4982776;28;20457;-59
2021/06/05 11:26:36;;;;;;;2.23;1.90;;;24.30;99.20;;;;;;4986552;28;20943;-59
2021/06/05 11:29:20;;;;;;;2.33;1.90;;;24.20;99.20;;;;;;5004341;28;20450;-59
2021/06/05 11:31:48;;;;;;;2.23;1.67;;;24.40;99.00;;;;;;4989514;28;20451;-58
2021/06/05 11:34:29;;;;;;;1.70;1.60;;;24.30;97.00;;;;;;4989421;28;20493;-59
2021/06/05 11:37:15;;;;;;;2.13;2.00;;;24.40;96.90;;;;;;4985724;28;20525;-58
2021/06/05 11:39:52;;;;;;;2.13;1.70;;;24.60;96.90;;;;;;4938655;28;20479;-59
2021/06/05 11:42:20;;;;;;;1.63;1.40;;;24.80;96.30;;;;;;4982012;28;21020;-59
2021/06/05 11:45:09;;;;;;;1.73;1.60;;;25.20;95.40;;;;;;4989900;28;20553;-59
2021/06/05 11:47:40;;;;;;;1.53;1.43;;;25.40;94.40;;;;;;4986422;28;20449;-59
2021/06/05 11:50:11;;;;;;;2.07;1.87;;;25.40;95.10;;;;;;4981320;28;20446;-59
2021/06/05 11:52:46;;;;;;;2.03;1.90;;;25.60;95.00;;;;;;5006204;28;20516;-59
2021/06/05 11:55:34;;;;;;;1.83;1.73;;;26.00;93.80;;;;;;4989070;28;20437;-59
2021/06/05 11:58:05;;;;;;;1.67;1.57;;;26.20;93.10;;;;;;4989049;28;20449;-59
2021/06/05 12:00:44;;;;;;;2.23;1.83;;;26.10;92.40;;;;;;4984033;28;20608;-60
2021/06/05 12:03:25;;;;;;;1.77;1.60;;;25.90;92.50;;;;;;4984800;28;20437;-59
2021/06/05 12:05:51;;;;;;;2.03;1.90;;;25.80;93.40;;;;;;4983767;28;20506;-59
2021/06/05 12:08:29;;;;;;;2.20;2.00;;;25.60;93.40;;;;;;4988649;28;20440;-59
2021/06/05 12:10:56;;;;;;;2.20;1.50;;;25.40;94.30;;;;;;4983389;28;20809;-59
2021/06/05 12:13:34;;;;;;;1.80;1.70;;;25.00;94.70;;;;;;4988903;28;20501;-59
2021/06/05 12:16:19;;;;;;;3.90;3.60;;;24.90;94.50;;;;;;4984122;28;20470;-59
2021/06/05 12:18:46;;;;;;;2.90;2.10;;;24.60;95.40;;;;;;4987337;28;20844;-59
2021/06/05 12:21:26;;;;;;;3.13;2.10;;;24.50;95.70;;;;;;4980592;28;20721;-59
2021/06/05 12:23:52;;;;;;;3.00;1.87;;;24.40;95.70;;;;;;4989021;28;20438;-59
2021/06/05 12:26:21;;;;;;;2.47;1.97;;;24.10;96.20;;;;;;4986529;28;20459;-59
2021/06/05 12:29:06;;;;;;;1.80;1.70;;;23.90;96.80;;;;;;4987487;28;20442;-59
2021/06/05 12:31:44;;;;;;;2.80;1.97;;;23.70;97.70;;;;;;4986117;28;20482;-60
2021/06/05 12:34:32;;;;;;;2.13;1.90;;;23.90;97.70;;;;;;4980349;28;20450;-62
2021/06/05 12:37:24;;;;;;;9.53;8.70;;;24.10;97.50;;;;;;4977721;28;20474;-59
2021/06/05 12:39:59;;;;;;;3.17;2.13;;;23.90;97.30;;;;;;4981530;28;20497;-59
2021/06/05 12:42:31;;;;;;;1.97;1.60;;;24.10;97.10;;;;;;4984170;28;20486;-58
2021/06/05 12:45:04;;;;;;;2.00;1.80;;;24.40;96.40;;;;;;4978755;28;20469;-58
2021/06/05 12:47:33;;;;;;;2.00;1.90;;;24.50;96.10;;;;;;4998301;28;20839;-57
2021/06/05 12:49:59;;;;;;;2.07;1.57;;;24.70;95.20;;;;;;4984264;28;20438;-57
2021/06/05 12:52:29;;;;;;;2.70;1.27;;;24.90;95.10;;;;;;4986405;28;20443;-58
2021/06/05 12:55:40;;;;;;;2.73;2.50;;;25.10;94.50;;;;;;4986977;28;20450;-58
2021/06/05 12:58:45;;;;;;;2.60;2.40;;;25.40;93.80;;;;;;4981105;28;20442;-58
2021/06/05 13:01:44;;;;;;;1.93;1.60;;;25.60;92.40;;;;;;4985345;28;20784;-58
2021/06/05 13:04:33;;;;;;;2.03;1.63;;;25.60;93.00;;;;;;4987327;28;20437;-58
2021/06/05 13:07:06;;;;;;;1.47;1.37;;;25.90;92.40;;;;;;4984608;28;20459;-58